createdAt,value
2018-06-08T00:01:00.053Z,3.90
2018-06-08T00:03:28.160Z,4.10
2018-06-08T00:05:56.318Z,4.67
2018-06-08T00:08:24.473Z,2.90
2018-06-08T00:10:52.561Z,5.97
2018-06-08T00:15:46.433Z,3.90
2018-06-08T00:18:14.536Z,3.33
2018-06-08T00:20:42.601Z,3.73
2018-06-08T00:23:10.695Z,3.53
2018-06-08T00:25:38.781Z,4.27
2018-06-08T00:28:06.979Z,3.20
2018-06-08T00:30:35.082Z,3.37
2018-06-08T00:33:03.217Z,3.00
2018-06-08T00:35:31.308Z,3.37
2018-06-08T00:37:59.460Z,2.90
2018-06-08T00:40:27.569Z,4.00
2018-06-08T00:42:55.820Z,2.80
2018-06-08T00:45:24.246Z,3.13
2018-06-08T00:47:52.558Z,2.93
2018-06-08T00:50:20.752Z,3.27
2018-06-08T00:52:48.880Z,4.03
2018-06-08T00:55:17.084Z,4.23
2018-06-08T00:57:45.231Z,2.50
2018-06-08T01:00:13.280Z,3.13
2018-06-08T01:02:41.465Z,3.83
2018-06-08T01:05:09.531Z,2.67
2018-06-08T01:07:37.698Z,2.97
2018-06-08T01:10:05.713Z,3.10
2018-06-08T01:12:33.772Z,3.07
2018-06-08T01:15:01.699Z,3.60
2018-06-08T01:17:29.785Z,4.87
2018-06-08T01:19:57.965Z,5.43
2018-06-08T01:22:26.053Z,2.67
2018-06-08T01:24:54.485Z,3.23
2018-06-08T01:27:22.375Z,2.83
2018-06-08T01:29:50.744Z,4.47
2018-06-08T01:32:18.876Z,4.33
2018-06-08T01:34:47.006Z,4.00
2018-06-08T01:37:15.145Z,4.93
2018-06-08T01:39:43.283Z,3.20
2018-06-08T01:42:11.339Z,3.63
2018-06-08T01:44:39.410Z,3.50
2018-06-08T01:47:07.529Z,4.37
2018-06-08T01:49:35.621Z,3.97
2018-06-08T01:52:03.740Z,2.77
2018-06-08T01:54:31.825Z,3.10
2018-06-08T01:56:59.984Z,3.00
2018-06-08T01:59:28.109Z,2.97
2018-06-08T02:01:56.337Z,5.13
2018-06-08T02:04:24.662Z,3.67
2018-06-08T02:06:52.785Z,3.23
2018-06-08T02:09:20.908Z,3.77
2018-06-08T02:11:49.142Z,4.00
2018-06-08T02:14:17.265Z,3.90
2018-06-08T02:16:45.324Z,2.87
2018-06-08T02:19:13.388Z,2.90
2018-06-08T02:21:41.454Z,2.97
2018-06-08T02:24:09.307Z,2.83
2018-06-08T02:26:37.379Z,3.07
2018-06-08T02:29:05.452Z,4.10
2018-06-08T02:31:33.524Z,3.00
2018-06-08T02:34:01.593Z,3.70
2018-06-08T02:36:29.668Z,3.33
2018-06-08T02:38:57.736Z,3.10
2018-06-08T02:41:25.845Z,3.60
2018-06-08T02:43:53.953Z,3.43
2018-06-08T02:46:22.057Z,2.87
2018-06-08T02:48:50.204Z,2.90
2018-06-08T02:51:18.345Z,3.23
2018-06-08T02:53:46.454Z,2.83
2018-06-08T02:56:14.624Z,3.83
2018-06-08T02:58:42.682Z,3.33
2018-06-08T03:01:10.758Z,2.90
2018-06-08T03:03:38.839Z,3.10
2018-06-08T03:06:06.917Z,4.23
2018-06-08T03:08:34.999Z,3.27
2018-06-08T03:11:03.191Z,2.73
2018-06-08T03:13:31.260Z,4.03
2018-06-08T03:15:59.316Z,4.47
2018-06-08T03:18:27.196Z,2.83
2018-06-08T03:20:55.336Z,3.60
2018-06-08T03:23:23.597Z,2.93
2018-06-08T03:25:51.775Z,4.83
2018-06-08T03:28:19.894Z,2.60
2018-06-08T03:30:48.059Z,3.03
2018-06-08T03:33:16.123Z,3.40
2018-06-08T03:35:44.315Z,3.07
2018-06-08T03:38:12.156Z,3.27
2018-06-08T03:40:40.229Z,3.30
2018-06-08T03:43:08.404Z,3.53
2018-06-08T03:45:36.476Z,3.23
2018-06-08T03:48:04.568Z,3.63
2018-06-08T03:50:32.619Z,3.37
2018-06-08T03:53:00.713Z,2.87
2018-06-08T03:55:29.169Z,3.63
2018-06-08T03:57:57.309Z,2.60
2018-06-08T04:00:25.416Z,2.70
2018-06-08T04:02:53.588Z,2.87
2018-06-08T04:05:22.388Z,3.37
2018-06-08T04:07:50.600Z,2.90
2018-06-08T04:10:18.920Z,3.43
2018-06-08T04:12:47.021Z,4.03
2018-06-08T04:15:15.112Z,3.37
2018-06-08T04:17:43.205Z,2.93
2018-06-08T04:20:11.288Z,2.83
2018-06-08T04:22:39.401Z,2.87
2018-06-08T04:25:07.484Z,4.57
2018-06-08T04:27:35.603Z,3.60
2018-06-08T04:30:03.670Z,2.70
2018-06-08T04:32:31.780Z,2.90
2018-06-08T04:34:59.905Z,4.57
2018-06-08T04:37:28.121Z,2.40
2018-06-08T04:39:56.680Z,2.67
2018-06-08T04:42:24.894Z,2.60
2018-06-08T04:44:53.096Z,3.13
2018-06-08T04:47:21.581Z,2.43
2018-06-08T04:49:50.129Z,3.53
2018-06-08T04:52:18.319Z,2.60
2018-06-08T04:54:46.424Z,3.80
2018-06-08T04:57:14.493Z,2.60
2018-06-08T04:59:42.617Z,3.13
2018-06-08T05:02:10.768Z,4.40
2018-06-08T05:04:38.846Z,4.63
2018-06-08T05:07:06.944Z,2.43
2018-06-08T05:09:35.042Z,3.73
2018-06-08T05:12:03.152Z,2.73
2018-06-08T05:14:31.256Z,2.67
2018-06-08T05:16:59.445Z,2.50
2018-06-08T05:19:27.577Z,2.57
2018-06-08T05:21:55.644Z,2.97
2018-06-08T05:24:23.824Z,3.50
2018-06-08T05:26:52.522Z,3.43
2018-06-08T05:29:20.799Z,2.50
2018-06-08T05:31:49.962Z,4.90
2018-06-08T05:34:18.293Z,3.87
2018-06-08T05:36:46.421Z,4.10
2018-06-08T05:39:14.521Z,4.03
2018-06-08T05:41:42.597Z,3.43
2018-06-08T05:44:10.660Z,2.90
2018-06-08T05:46:38.732Z,2.70
2018-06-08T05:49:06.924Z,3.57
2018-06-08T05:51:35.032Z,3.47
2018-06-08T05:54:03.125Z,3.27
2018-06-08T05:56:31.289Z,3.20
2018-06-08T05:58:59.267Z,3.00
2018-06-08T06:01:27.551Z,3.43
2018-06-08T06:03:55.448Z,3.20
2018-06-08T06:06:23.591Z,3.30
2018-06-08T06:08:51.825Z,2.87
2018-06-08T06:11:20.571Z,3.40
2018-06-08T06:13:48.766Z,3.13
2018-06-08T06:16:16.838Z,4.93
2018-06-08T06:18:44.892Z,4.13
2018-06-08T06:21:12.987Z,3.67
2018-06-08T06:23:41.074Z,5.20
2018-06-08T06:26:09.196Z,2.60
2018-06-08T06:28:37.327Z,3.83
2018-06-08T06:31:05.424Z,2.83
2018-06-08T06:33:33.593Z,4.20
2018-06-08T06:36:01.673Z,3.33
2018-06-08T06:38:29.816Z,3.70
2018-06-08T06:40:57.992Z,3.50
2018-06-08T06:43:26.216Z,2.50
2018-06-08T06:45:54.425Z,4.10
2018-06-08T06:48:22.677Z,4.07
2018-06-08T06:50:50.939Z,3.03
2018-06-08T06:53:19.208Z,3.00
2018-06-08T06:55:47.545Z,3.43
2018-06-08T06:58:15.616Z,4.40
2018-06-08T07:00:43.696Z,4.23
2018-06-08T07:03:11.764Z,3.70
2018-06-08T07:05:40.024Z,3.33
2018-06-08T07:08:08.095Z,4.60
2018-06-08T07:10:36.144Z,3.97
2018-06-08T07:13:04.270Z,3.37
2018-06-08T07:15:32.481Z,4.40
2018-06-08T07:18:00.644Z,4.53
2018-06-08T07:20:29.168Z,3.70
2018-06-08T07:22:57.284Z,3.10
2018-06-08T07:25:25.522Z,5.13
2018-06-08T07:27:53.691Z,4.37
2018-06-08T07:30:21.799Z,3.63
2018-06-08T07:32:50.264Z,3.63
2018-06-08T07:35:18.186Z,2.87
2018-06-08T07:37:46.296Z,3.23
2018-06-08T07:40:14.404Z,5.03
2018-06-08T07:42:42.456Z,3.23
2018-06-08T07:45:10.536Z,3.73
2018-06-08T07:47:38.648Z,3.43
2018-06-08T07:50:06.720Z,4.13
2018-06-08T07:52:34.836Z,2.80
2018-06-08T07:55:02.916Z,3.03
2018-06-08T07:57:30.852Z,4.43
2018-06-08T07:59:59.017Z,4.10
2018-06-08T08:02:27.229Z,4.40
2018-06-08T08:04:55.383Z,3.00
2018-06-08T08:07:23.553Z,3.93
2018-06-08T08:09:51.758Z,3.30
2018-06-08T08:12:20.038Z,3.40
2018-06-08T08:14:48.184Z,3.77
2018-06-08T08:17:16.301Z,4.20
2018-06-08T08:19:44.232Z,3.63
2018-06-08T08:22:12.305Z,3.00
2018-06-08T08:24:40.477Z,3.00
2018-06-08T08:27:08.554Z,3.07
2018-06-08T08:29:36.624Z,3.20
2018-06-08T08:32:04.761Z,3.53
2018-06-08T08:34:32.849Z,3.80
2018-06-08T08:37:01.031Z,3.00
2018-06-08T08:39:29.146Z,3.00
2018-06-08T08:41:57.304Z,3.40
2018-06-08T08:44:25.553Z,3.97
2018-06-08T08:46:53.688Z,4.97
2018-06-08T08:49:21.911Z,4.27
2018-06-08T08:51:50.210Z,3.73
2018-06-08T08:54:18.589Z,3.40
2018-06-08T08:56:46.728Z,3.07
2018-06-08T08:59:14.801Z,6.43
2018-06-08T09:01:42.976Z,3.00
2018-06-08T09:04:11.150Z,3.73
2018-06-08T09:06:39.285Z,4.90
2018-06-08T09:09:07.577Z,4.33
2018-06-08T09:11:35.704Z,4.07
2018-06-08T09:14:03.741Z,3.40
2018-06-08T09:16:31.868Z,4.27
2018-06-08T09:18:59.992Z,3.07
2018-06-08T09:21:28.325Z,3.53
2018-06-08T09:23:56.504Z,3.87
2018-06-08T09:26:24.730Z,5.60
2018-06-08T09:28:52.882Z,2.90
2018-06-08T09:31:21.076Z,2.93
2018-06-08T09:33:49.436Z,8.20
2018-06-08T09:36:19.041Z,7.13
2018-06-08T09:38:47.282Z,8.97
2018-06-08T09:41:15.406Z,5.07
2018-06-08T09:43:43.501Z,6.43
2018-06-08T09:46:11.634Z,7.53
2018-06-08T09:48:39.682Z,4.93
2018-06-08T09:51:07.843Z,7.93
2018-06-08T09:53:35.964Z,6.70
2018-06-08T09:56:04.036Z,9.90
2018-06-08T09:58:32.124Z,11.30
2018-06-08T10:01:00.386Z,7.60
2018-06-08T10:03:28.515Z,8.23
2018-06-08T10:05:56.702Z,8.17
2018-06-08T10:08:24.889Z,8.67
2018-06-08T10:10:53.179Z,11.73
2018-06-08T10:13:21.422Z,10.17
2018-06-08T10:15:50.355Z,11.70
2018-06-08T10:18:18.603Z,12.87
2018-06-08T10:20:51.088Z,15.90
2018-06-08T10:23:19.103Z,26.13
2018-06-08T10:25:47.393Z,22.37
2018-06-08T10:28:15.479Z,27.77
2018-06-08T10:30:43.582Z,21.27
2018-06-08T10:33:11.665Z,34.70
2018-06-08T10:35:39.748Z,24.23
2018-06-08T10:38:07.849Z,22.30
2018-06-08T10:40:35.989Z,25.77
2018-06-08T10:43:04.376Z,29.60
2018-06-08T10:45:32.510Z,22.77
2018-06-08T10:48:00.585Z,26.20
2018-06-08T10:50:28.736Z,25.03
2018-06-08T10:52:56.864Z,37.57
2018-06-08T10:55:25.212Z,20.33
2018-06-08T10:57:53.412Z,19.20
2018-06-08T11:00:21.590Z,21.97
2018-06-08T11:02:49.747Z,21.43
2018-06-08T11:05:17.974Z,24.73
2018-06-08T11:07:46.068Z,16.27
2018-06-08T11:10:14.205Z,22.23
2018-06-08T11:12:42.298Z,22.63
2018-06-08T11:15:10.402Z,21.30
2018-06-08T11:17:38.561Z,26.13
2018-06-08T11:20:06.624Z,22.70
2018-06-08T11:22:34.729Z,23.53
2018-06-08T11:25:02.922Z,29.30
2018-06-08T11:27:31.033Z,21.60
2018-06-08T11:29:59.204Z,24.60
2018-06-08T11:32:27.511Z,22.57
2018-06-08T11:34:55.844Z,24.40
2018-06-08T11:37:24.050Z,21.10
2018-06-08T11:39:52.232Z,30.50
2018-06-08T11:42:20.373Z,20.20
2018-06-08T11:44:48.604Z,32.03
2018-06-08T11:47:16.942Z,28.00
2018-06-08T11:49:45.526Z,30.70
2018-06-08T11:52:13.864Z,38.67
2018-06-08T11:54:42.111Z,27.63
2018-06-08T11:57:10.286Z,41.87
2018-06-08T11:59:38.424Z,37.93
2018-06-08T12:02:06.612Z,30.70
2018-06-08T12:04:34.818Z,45.50
2018-06-08T12:07:02.934Z,50.27
2018-06-08T12:09:31.184Z,157.87
2018-06-08T12:11:59.116Z,40.60
2018-06-08T12:14:27.196Z,64.20
2018-06-08T12:16:55.291Z,51.33
2018-06-08T12:19:23.464Z,54.57
2018-06-08T12:21:52.632Z,41.90
2018-06-08T12:24:20.836Z,42.07
2018-06-08T12:26:48.979Z,32.90
2018-06-08T12:29:17.165Z,42.80
2018-06-08T12:31:45.544Z,39.90
2018-06-08T12:34:13.851Z,31.30
2018-06-08T12:36:42.119Z,40.33
2018-06-08T12:39:10.575Z,35.40
2018-06-08T12:41:38.680Z,31.57
2018-06-08T12:44:06.865Z,39.53
2018-06-08T12:46:34.992Z,34.97
2018-06-08T12:49:04.085Z,35.10
2018-06-08T12:51:32.054Z,26.07
2018-06-08T12:54:00.136Z,32.43
2018-06-08T12:56:28.261Z,35.57
2018-06-08T12:58:56.324Z,34.00
2018-06-08T13:01:24.460Z,48.43
2018-06-08T13:03:52.606Z,29.53
2018-06-08T13:06:20.789Z,32.07
2018-06-08T13:08:49.237Z,35.30
2018-06-08T13:11:17.432Z,34.10
2018-06-08T13:13:45.696Z,49.43
2018-06-08T13:16:14.115Z,37.73
2018-06-08T13:18:42.373Z,33.70
2018-06-08T13:21:10.746Z,42.30
2018-06-08T13:23:39.001Z,29.03
2018-06-08T13:26:07.140Z,33.17
2018-06-08T13:28:35.280Z,23.50
2018-06-08T13:31:03.396Z,32.83
2018-06-08T13:33:31.538Z,29.43
2018-06-08T13:35:59.654Z,30.67
2018-06-08T13:38:27.739Z,36.07
2018-06-08T13:40:55.817Z,28.17
2018-06-08T13:43:24.009Z,32.93
2018-06-08T13:45:52.123Z,50.57
2018-06-08T13:48:20.390Z,42.53
2018-06-08T13:50:48.754Z,45.07
2018-06-08T13:53:17.359Z,29.93
2018-06-08T13:55:45.666Z,27.50
2018-06-08T13:58:13.941Z,33.80
2018-06-08T14:00:42.319Z,40.23
2018-06-08T14:03:10.620Z,33.10
2018-06-08T14:05:39.087Z,31.33
2018-06-08T14:08:07.197Z,38.03
2018-06-08T14:10:35.284Z,29.23
2018-06-08T14:13:03.407Z,30.77
2018-06-08T14:15:31.509Z,36.50
2018-06-08T14:17:59.594Z,28.97
2018-06-08T14:20:27.702Z,34.50
2018-06-08T14:22:55.847Z,29.03
2018-06-08T14:25:23.997Z,39.17
2018-06-08T14:27:52.666Z,31.70
2018-06-08T14:30:20.954Z,35.47
2018-06-08T14:32:49.196Z,30.83
2018-06-08T14:35:17.573Z,31.43
2018-06-08T14:37:45.651Z,38.57
2018-06-08T14:40:13.930Z,31.87
2018-06-08T14:42:42.185Z,35.57
2018-06-08T14:45:10.375Z,27.50
2018-06-08T14:47:38.547Z,33.27
2018-06-08T14:50:06.625Z,34.23
2018-06-08T14:52:34.812Z,26.47
2018-06-08T14:55:02.996Z,38.30
2018-06-08T14:57:31.188Z,32.87
2018-06-08T14:59:59.580Z,37.33
2018-06-08T15:02:27.736Z,36.37
2018-06-08T15:04:55.820Z,30.77
2018-06-08T15:07:23.766Z,27.97
2018-06-08T15:09:51.886Z,23.13
2018-06-08T15:12:19.992Z,31.53
2018-06-08T15:14:48.392Z,29.10
2018-06-08T15:17:16.623Z,25.83
2018-06-08T15:19:44.892Z,25.37
2018-06-08T15:22:13.768Z,36.03
2018-06-08T15:24:42.476Z,37.13
2018-06-08T15:27:10.746Z,28.87
2018-06-08T15:29:38.900Z,45.83
2018-06-08T15:32:07.000Z,28.93
2018-06-08T15:34:35.184Z,30.67
2018-06-08T15:37:03.244Z,30.83
2018-06-08T15:39:31.321Z,22.90
2018-06-08T15:41:59.408Z,23.37
2018-06-08T15:44:27.512Z,17.70
2018-06-08T15:46:55.735Z,31.60
2018-06-08T15:49:23.860Z,22.73
2018-06-08T15:51:51.971Z,17.60
2018-06-08T15:54:20.196Z,22.70
2018-06-08T15:56:48.112Z,25.67
2018-06-08T15:59:16.395Z,18.60
2018-06-08T16:01:44.517Z,24.77
2018-06-08T16:04:12.726Z,22.93
2018-06-08T16:06:40.880Z,16.27
2018-06-08T16:09:08.992Z,21.33
2018-06-08T16:11:37.161Z,19.93
2018-06-08T16:14:05.225Z,19.43
2018-06-08T16:16:33.288Z,17.87
2018-06-08T16:19:01.444Z,20.83
2018-06-08T16:21:29.513Z,13.97
2018-06-08T16:23:57.698Z,19.13
2018-06-08T16:26:25.764Z,16.93
2018-06-08T16:28:53.832Z,11.30
2018-06-08T16:31:21.907Z,20.10
2018-06-08T16:33:50.128Z,17.50
2018-06-08T16:36:18.391Z,10.97
2018-06-08T16:38:46.553Z,13.93
2018-06-08T16:41:14.840Z,14.77
2018-06-08T16:43:43.101Z,12.90
2018-06-08T16:46:11.405Z,12.47
2018-06-08T16:48:39.490Z,14.50
2018-06-08T16:51:07.569Z,9.47
2018-06-08T16:53:35.669Z,11.27
2018-06-08T16:56:03.769Z,8.50
2018-06-08T16:58:31.889Z,14.83
2018-06-08T17:00:59.981Z,11.17
2018-06-08T17:03:28.092Z,10.07
2018-06-08T17:05:56.242Z,12.00
2018-06-08T17:08:24.348Z,9.47
2018-06-08T17:10:52.436Z,8.63
2018-06-08T17:13:20.472Z,10.23
2018-06-08T17:15:48.640Z,11.23
2018-06-08T17:18:16.875Z,8.97
2018-06-08T17:20:44.989Z,11.63
2018-06-08T17:23:13.120Z,8.53
2018-06-08T17:25:41.248Z,7.57
2018-06-08T17:28:09.385Z,11.10
2018-06-08T17:30:37.488Z,5.93
2018-06-08T17:33:05.548Z,7.87
2018-06-08T17:35:33.644Z,8.10
2018-06-08T17:38:01.783Z,8.57
2018-06-08T17:40:29.901Z,7.57
2018-06-08T17:42:57.983Z,7.17
2018-06-08T17:45:26.080Z,7.53
2018-06-08T17:47:54.264Z,6.73
2018-06-08T17:50:23.347Z,9.10
2018-06-08T17:52:51.512Z,7.90
2018-06-08T17:55:19.612Z,7.13
2018-06-08T17:57:47.752Z,6.90
2018-06-08T18:00:15.874Z,7.40
2018-06-08T18:02:44.038Z,6.13
2018-06-08T18:05:12.368Z,7.07
2018-06-08T18:07:40.578Z,5.50
2018-06-08T18:10:08.725Z,7.00
2018-06-08T18:12:36.805Z,8.63
2018-06-08T18:15:04.960Z,5.93
2018-06-08T18:17:33.073Z,7.90
2018-06-08T18:20:01.164Z,9.80
2018-06-08T18:22:29.233Z,4.97
2018-06-08T18:24:57.329Z,5.70
2018-06-08T18:27:25.432Z,5.10
2018-06-08T18:29:53.500Z,6.57
2018-06-08T18:32:21.923Z,7.93
2018-06-08T18:34:50.180Z,5.80
2018-06-08T18:37:18.209Z,5.40
2018-06-08T18:39:46.393Z,5.57
2018-06-08T18:42:14.559Z,5.40
2018-06-08T18:44:42.770Z,5.73
2018-06-08T18:47:10.932Z,6.10
2018-06-08T18:49:39.065Z,4.93
2018-06-08T18:52:07.144Z,5.33
2018-06-08T18:54:35.201Z,7.07
2018-06-08T18:57:03.296Z,5.00
2018-06-08T18:59:31.381Z,4.47
2018-06-08T19:01:59.452Z,4.90
2018-06-08T19:04:27.508Z,4.63
2018-06-08T19:06:55.582Z,5.33
2018-06-08T19:09:23.692Z,5.50
2018-06-08T19:11:51.784Z,5.27
2018-06-08T19:14:19.885Z,4.10
2018-06-08T19:16:48.008Z,4.77
2018-06-08T19:19:15.967Z,4.63
2018-06-08T19:21:44.399Z,4.33
2018-06-08T19:24:12.542Z,5.87
2018-06-08T19:26:40.679Z,6.47
2018-06-08T19:29:08.824Z,4.30
2018-06-08T19:31:36.945Z,4.87
2018-06-08T19:34:05.036Z,6.83
2018-06-08T19:36:33.133Z,4.10
2018-06-08T19:39:01.273Z,4.83
2018-06-08T19:41:29.362Z,4.60
2018-06-08T19:43:58.806Z,4.70
2018-06-08T19:46:26.884Z,4.30
2018-06-08T19:48:54.980Z,5.00
2018-06-08T19:51:23.156Z,4.50
2018-06-08T19:53:51.339Z,6.13
2018-06-08T19:56:19.507Z,3.83
2018-06-08T19:58:47.715Z,4.93
2018-06-08T20:01:16.026Z,5.17
2018-06-08T20:03:44.248Z,4.30
2018-06-08T20:06:12.448Z,4.73
2018-06-08T20:08:40.665Z,5.57
2018-06-08T20:11:08.786Z,5.77
2018-06-08T20:13:36.864Z,4.97
2018-06-08T20:16:05.129Z,6.00
2018-06-08T20:18:33.213Z,5.80
2018-06-08T20:21:01.292Z,5.20
2018-06-08T20:23:29.399Z,4.80
2018-06-08T20:25:57.468Z,5.07
2018-06-08T20:28:25.644Z,5.60
2018-06-08T20:30:53.784Z,5.07
2018-06-08T20:33:21.868Z,5.00
2018-06-08T20:35:49.977Z,6.33
2018-06-08T20:38:18.119Z,5.57
2018-06-08T20:40:46.412Z,5.83
2018-06-08T20:43:14.612Z,6.23
2018-06-08T20:45:42.817Z,5.50
2018-06-08T20:48:11.341Z,5.13
2018-06-08T20:50:39.460Z,5.33
2018-06-08T20:53:07.569Z,6.10
2018-06-08T20:55:35.724Z,5.87
2018-06-08T20:58:03.828Z,5.03
2018-06-08T21:00:31.928Z,6.20
2018-06-08T21:03:00.080Z,5.17
2018-06-08T21:05:28.140Z,6.50
2018-06-08T21:07:56.290Z,4.80
2018-06-08T21:10:24.380Z,5.70
2018-06-08T21:12:52.456Z,4.90
2018-06-08T21:15:20.550Z,5.13
2018-06-08T21:17:48.732Z,5.30
2018-06-08T21:20:16.853Z,5.17
2018-06-08T21:22:44.785Z,6.23
2018-06-08T21:25:12.977Z,5.37
2018-06-08T21:27:41.156Z,4.97
2018-06-08T21:30:09.268Z,5.30
2018-06-08T21:32:37.332Z,5.67
2018-06-08T21:35:05.766Z,5.67
2018-06-08T21:37:33.916Z,5.13
2018-06-08T21:40:01.973Z,5.17
2018-06-08T21:42:30.075Z,7.97
2018-06-08T21:44:58.124Z,5.63
2018-06-08T21:47:26.264Z,5.50
2018-06-08T21:49:54.340Z,6.33
2018-06-08T21:52:22.417Z,7.03
2018-06-08T21:54:50.568Z,5.70
2018-06-08T21:57:18.737Z,5.17
2018-06-08T21:59:46.881Z,5.60
2018-06-08T22:02:15.117Z,6.67
2018-06-08T22:04:43.349Z,5.30
2018-06-08T22:07:11.545Z,5.57
2018-06-08T22:09:39.623Z,4.93
2018-06-08T22:12:07.707Z,5.20
2018-06-08T22:14:35.865Z,4.73
2018-06-08T22:17:04.284Z,5.17
2018-06-08T22:19:32.376Z,4.83
2018-06-08T22:22:00.466Z,5.23
2018-06-08T22:24:28.545Z,4.63
2018-06-08T22:26:56.678Z,4.80
2018-06-08T22:29:24.755Z,5.80
2018-06-08T22:31:52.948Z,5.50
2018-06-08T22:34:21.062Z,5.73
2018-06-08T22:36:49.315Z,7.47
2018-06-08T22:39:17.498Z,4.93
2018-06-08T22:41:45.685Z,4.30
2018-06-08T22:44:14.038Z,5.17
2018-06-08T22:46:42.271Z,4.80
2018-06-08T22:49:10.429Z,4.70
2018-06-08T22:51:38.596Z,4.50
2018-06-08T22:54:06.753Z,4.53
2018-06-08T22:56:34.844Z,5.13
2018-06-08T22:59:02.917Z,4.60
2018-06-08T23:01:30.976Z,4.97
2018-06-08T23:03:59.036Z,5.10
2018-06-08T23:06:26.976Z,4.30
2018-06-08T23:08:55.041Z,5.87
2018-06-08T23:11:23.242Z,4.47
2018-06-08T23:13:51.202Z,4.43
2018-06-08T23:16:19.332Z,4.13
2018-06-08T23:18:47.514Z,6.03
2018-06-08T23:21:15.691Z,4.53
2018-06-08T23:23:43.889Z,4.70
2018-06-08T23:26:12.269Z,4.53
2018-06-08T23:28:40.453Z,4.30
2018-06-08T23:31:08.644Z,4.67
2018-06-08T23:33:36.735Z,5.00
2018-06-08T23:36:04.975Z,5.20
2018-06-08T23:38:33.028Z,5.27
2018-06-08T23:41:00.917Z,4.50
2018-06-08T23:43:28.992Z,4.97
2018-06-08T23:45:57.057Z,5.50
2018-06-08T23:48:25.189Z,5.53
2018-06-08T23:50:53.260Z,5.53
2018-06-08T23:53:21.341Z,5.93
2018-06-08T23:55:49.464Z,5.70
2018-06-08T23:58:17.688Z,6.30
